sensor_id;sensor_type;location;lat;lon;timestamp;P1;durP1;ratioP1;P2;durP2;ratioP2
67503;SDS011;54351;49.108;1.502;2022-07-22T00:01:57;560.05;;;526.20;;
67503;SDS011;54351;49.108;1.502;2022-07-22T00:04:24;560.85;;;526.92;;
67503;SDS011;54351;49.108;1.502;2022-07-22T00:06:50;559.72;;;525.42;;
67503;SDS011;54351;49.108;1.502;2022-07-22T00:09:16;562.08;;;527.78;;
67503;SDS011;54351;49.108;1.502;2022-07-22T00:11:42;567.90;;;532.75;;
67503;SDS011;54351;49.108;1.502;2022-07-22T00:14:08;588.63;;;552.10;;
67503;SDS011;54351;49.108;1.502;2022-07-22T00:16:34;585.00;;;548.30;;
67503;SDS011;54351;49.108;1.502;2022-07-22T00:19:00;563.83;;;529.42;;
67503;SDS011;54351;49.108;1.502;2022-07-22T00:21:26;591.67;;;554.45;;
67503;SDS011;54351;49.108;1.502;2022-07-22T00:23:52;584.00;;;547.50;;
67503;SDS011;54351;49.108;1.502;2022-07-22T00:26:18;600.00;;;562.80;;
67503;SDS011;54351;49.108;1.502;2022-07-22T00:28:44;574.25;;;538.47;;
67503;SDS011;54351;49.108;1.502;2022-07-22T00:31:10;601.38;;;563.28;;
67503;SDS011;54351;49.108;1.502;2022-07-22T00:33:36;611.40;;;572.92;;
67503;SDS011;54351;49.108;1.502;2022-07-22T00:36:03;595.88;;;558.58;;
67503;SDS011;54351;49.108;1.502;2022-07-22T00:38:29;619.13;;;580.17;;
67503;SDS011;54351;49.108;1.502;2022-07-22T00:40:55;616.88;;;577.75;;
67503;SDS011;54351;49.108;1.502;2022-07-22T00:43:21;610.70;;;572.05;;
67503;SDS011;54351;49.108;1.502;2022-07-22T00:45:47;592.58;;;555.42;;
67503;SDS011;54351;49.108;1.502;2022-07-22T00:48:13;602.92;;;564.60;;
67503;SDS011;54351;49.108;1.502;2022-07-22T00:50:39;616.75;;;577.97;;
67503;SDS011;54351;49.108;1.502;2022-07-22T00:53:06;631.53;;;591.58;;
67503;SDS011;54351;49.108;1.502;2022-07-22T00:55:33;630.30;;;590.58;;
67503;SDS011;54351;49.108;1.502;2022-07-22T00:57:59;620.63;;;581.75;;
67503;SDS011;54351;49.108;1.502;2022-07-22T01:00:25;626.65;;;586.75;;
67503;SDS011;54351;49.108;1.502;2022-07-22T01:02:51;628.78;;;588.65;;
67503;SDS011;54351;49.108;1.502;2022-07-22T01:05:17;595.55;;;557.55;;
67503;SDS011;54351;49.108;1.502;2022-07-22T01:07:44;635.13;;;594.95;;
67503;SDS011;54351;49.108;1.502;2022-07-22T01:10:10;659.92;;;618.03;;
67503;SDS011;54351;49.108;1.502;2022-07-22T01:12:36;628.83;;;588.90;;
67503;SDS011;54351;49.108;1.502;2022-07-22T01:15:02;638.88;;;598.63;;
67503;SDS011;54351;49.108;1.502;2022-07-22T01:17:29;646.95;;;606.15;;
67503;SDS011;54351;49.108;1.502;2022-07-22T01:19:59;639.15;;;598.95;;
67503;SDS011;54351;49.108;1.502;2022-07-22T01:22:29;647.20;;;606.55;;
67503;SDS011;54351;49.108;1.502;2022-07-22T01:24:56;639.15;;;598.38;;
67503;SDS011;54351;49.108;1.502;2022-07-22T01:27:22;658.28;;;616.28;;
67503;SDS011;54351;49.108;1.502;2022-07-22T01:29:48;640.60;;;599.95;;
67503;SDS011;54351;49.108;1.502;2022-07-22T01:32:14;524.33;;;493.40;;
67503;SDS011;54351;49.108;1.502;2022-07-22T01:34:40;521.55;;;491.02;;
67503;SDS011;54351;49.108;1.502;2022-07-22T01:37:08;517.00;;;486.67;;
67503;SDS011;54351;49.108;1.502;2022-07-22T01:39:34;523.13;;;492.58;;
67503;SDS011;54351;49.108;1.502;2022-07-22T01:42:00;534.50;;;502.92;;
67503;SDS011;54351;49.108;1.502;2022-07-22T01:44:26;490.13;;;461.45;;
67503;SDS011;54351;49.108;1.502;2022-07-22T01:46:52;506.00;;;475.95;;
67503;SDS011;54351;49.108;1.502;2022-07-22T01:49:19;516.05;;;485.75;;
67503;SDS011;54351;49.108;1.502;2022-07-22T01:51:46;502.80;;;472.98;;
67503;SDS011;54351;49.108;1.502;2022-07-22T01:54:12;478.85;;;451.02;;
67503;SDS011;54351;49.108;1.502;2022-07-22T01:56:38;489.92;;;461.38;;
67503;SDS011;54351;49.108;1.502;2022-07-22T01:59:04;499.83;;;470.70;;
67503;SDS011;54351;49.108;1.502;2022-07-22T02:01:30;512.88;;;482.80;;
67503;SDS011;54351;49.108;1.502;2022-07-22T02:03:56;513.92;;;483.48;;
67503;SDS011;54351;49.108;1.502;2022-07-22T02:06:22;509.98;;;480.02;;
67503;SDS011;54351;49.108;1.502;2022-07-22T02:08:51;514.67;;;484.42;;
67503;SDS011;54351;49.108;1.502;2022-07-22T02:11:17;536.25;;;504.42;;
67503;SDS011;54351;49.108;1.502;2022-07-22T02:13:43;522.90;;;491.85;;
67503;SDS011;54351;49.108;1.502;2022-07-22T02:16:09;559.70;;;526.15;;
67503;SDS011;54351;49.108;1.502;2022-07-22T02:18:35;533.88;;;502.10;;
67503;SDS011;54351;49.108;1.502;2022-07-22T02:21:01;509.67;;;479.23;;
67503;SDS011;54351;49.108;1.502;2022-07-22T02:23:27;517.72;;;487.13;;
67503;SDS011;54351;49.108;1.502;2022-07-22T02:25:53;490.63;;;461.98;;
67503;SDS011;54351;49.108;1.502;2022-07-22T02:28:19;492.75;;;463.88;;
67503;SDS011;54351;49.108;1.502;2022-07-22T02:30:45;465.00;;;438.35;;
67503;SDS011;54351;49.108;1.502;2022-07-22T02:33:11;513.13;;;483.17;;
67503;SDS011;54351;49.108;1.502;2022-07-22T02:35:38;490.30;;;462.00;;
67503;SDS011;54351;49.108;1.502;2022-07-22T02:38:04;501.92;;;472.70;;
67503;SDS011;54351;49.108;1.502;2022-07-22T02:40:33;520.50;;;489.92;;
67503;SDS011;54351;49.108;1.502;2022-07-22T02:42:59;494.65;;;466.77;;
67503;SDS011;54351;49.108;1.502;2022-07-22T02:45:25;507.75;;;477.92;;
67503;SDS011;54351;49.108;1.502;2022-07-22T02:47:54;526.65;;;496.15;;
67503;SDS011;54351;49.108;1.502;2022-07-22T02:50:21;506.58;;;477.20;;
67503;SDS011;54351;49.108;1.502;2022-07-22T02:52:47;496.42;;;467.33;;
67503;SDS011;54351;49.108;1.502;2022-07-22T02:55:13;511.40;;;481.58;;
67503;SDS011;54351;49.108;1.502;2022-07-22T02:57:40;488.38;;;460.17;;
67503;SDS011;54351;49.108;1.502;2022-07-22T03:00:07;486.17;;;458.70;;
67503;SDS011;54351;49.108;1.502;2022-07-22T03:02:35;478.92;;;451.20;;
67503;SDS011;54351;49.108;1.502;2022-07-22T03:05:01;515.47;;;485.30;;
67503;SDS011;54351;49.108;1.502;2022-07-22T03:07:30;507.67;;;477.25;;
67503;SDS011;54351;49.108;1.502;2022-07-22T03:09:56;509.60;;;480.02;;
67503;SDS011;54351;49.108;1.502;2022-07-22T03:12:23;507.80;;;477.48;;
67503;SDS011;54351;49.108;1.502;2022-07-22T03:14:50;511.67;;;481.65;;
67503;SDS011;54351;49.108;1.502;2022-07-22T03:17:17;520.97;;;490.60;;
67503;SDS011;54351;49.108;1.502;2022-07-22T03:19:44;493.42;;;465.05;;
67503;SDS011;54351;49.108;1.502;2022-07-22T03:22:10;496.23;;;467.63;;
67503;SDS011;54351;49.108;1.502;2022-07-22T03:24:37;487.52;;;458.83;;
67503;SDS011;54351;49.108;1.502;2022-07-22T03:27:03;498.40;;;468.90;;
67503;SDS011;54351;49.108;1.502;2022-07-22T03:29:30;500.90;;;472.02;;
67503;SDS011;54351;49.108;1.502;2022-07-22T03:31:56;485.88;;;457.67;;
67503;SDS011;54351;49.108;1.502;2022-07-22T03:34:22;519.80;;;488.95;;
67503;SDS011;54351;49.108;1.502;2022-07-22T03:36:49;507.75;;;477.95;;
67503;SDS011;54351;49.108;1.502;2022-07-22T03:39:15;522.75;;;491.33;;
67503;SDS011;54351;49.108;1.502;2022-07-22T03:41:41;507.23;;;477.67;;
67503;SDS011;54351;49.108;1.502;2022-07-22T03:44:07;501.20;;;471.30;;
67503;SDS011;54351;49.108;1.502;2022-07-22T03:46:34;513.92;;;483.20;;
67503;SDS011;54351;49.108;1.502;2022-07-22T03:49:00;509.88;;;479.52;;
67503;SDS011;54351;49.108;1.502;2022-07-22T03:51:26;514.90;;;485.00;;
67503;SDS011;54351;49.108;1.502;2022-07-22T03:53:52;508.15;;;478.65;;
67503;SDS011;54351;49.108;1.502;2022-07-22T03:56:18;514.85;;;483.90;;
67503;SDS011;54351;49.108;1.502;2022-07-22T03:58:44;531.28;;;499.65;;
67503;SDS011;54351;49.108;1.502;2022-07-22T04:01:10;536.08;;;504.17;;
67503;SDS011;54351;49.108;1.502;2022-07-22T04:03:36;514.35;;;484.25;;
67503;SDS011;54351;49.108;1.502;2022-07-22T04:06:03;498.98;;;470.23;;
67503;SDS011;54351;49.108;1.502;2022-07-22T04:08:29;505.50;;;476.02;;
67503;SDS011;54351;49.108;1.502;2022-07-22T04:10:55;523.22;;;492.67;;
67503;SDS011;54351;49.108;1.502;2022-07-22T04:13:21;512.22;;;481.40;;
67503;SDS011;54351;49.108;1.502;2022-07-22T04:15:47;499.05;;;470.08;;
67503;SDS011;54351;49.108;1.502;2022-07-22T04:18:13;500.10;;;471.05;;
67503;SDS011;54351;49.108;1.502;2022-07-22T04:20:42;504.98;;;475.75;;
67503;SDS011;54351;49.108;1.502;2022-07-22T04:23:08;516.75;;;486.27;;
67503;SDS011;54351;49.108;1.502;2022-07-22T04:25:34;486.25;;;458.73;;
67503;SDS011;54351;49.108;1.502;2022-07-22T04:28:00;503.98;;;474.95;;
67503;SDS011;54351;49.108;1.502;2022-07-22T04:30:26;504.42;;;474.95;;
67503;SDS011;54351;49.108;1.502;2022-07-22T04:32:52;475.02;;;447.23;;
67503;SDS011;54351;49.108;1.502;2022-07-22T04:35:18;480.92;;;452.90;;
67503;SDS011;54351;49.108;1.502;2022-07-22T04:37:45;475.92;;;448.08;;
67503;SDS011;54351;49.108;1.502;2022-07-22T04:40:11;496.98;;;467.67;;
67503;SDS011;54351;49.108;1.502;2022-07-22T04:42:37;501.88;;;472.83;;
67503;SDS011;54351;49.108;1.502;2022-07-22T04:45:05;500.95;;;471.92;;
67503;SDS011;54351;49.108;1.502;2022-07-22T04:47:32;498.67;;;470.05;;
67503;SDS011;54351;49.108;1.502;2022-07-22T04:49:59;481.23;;;453.67;;
67503;SDS011;54351;49.108;1.502;2022-07-22T04:52:26;450.75;;;425.42;;
67503;SDS011;54351;49.108;1.502;2022-07-22T04:54:53;443.58;;;418.38;;
67503;SDS011;54351;49.108;1.502;2022-07-22T04:57:19;433.08;;;409.08;;
67503;SDS011;54351;49.108;1.502;2022-07-22T04:59:45;407.13;;;385.23;;
67503;SDS011;54351;49.108;1.502;2022-07-22T05:02:11;371.23;;;350.70;;
67503;SDS011;54351;49.108;1.502;2022-07-22T05:04:37;327.00;;;308.88;;
67503;SDS011;54351;49.108;1.502;2022-07-22T05:07:03;261.20;;;247.27;;
67503;SDS011;54351;49.108;1.502;2022-07-22T05:09:29;144.40;;;135.68;;
67503;SDS011;54351;49.108;1.502;2022-07-22T05:11:55;139.00;;;130.57;;
67503;SDS011;54351;49.108;1.502;2022-07-22T05:14:22;142.05;;;133.98;;
67503;SDS011;54351;49.108;1.502;2022-07-22T05:16:48;132.90;;;124.43;;
67503;SDS011;54351;49.108;1.502;2022-07-22T05:19:14;123.97;;;116.63;;
67503;SDS011;54351;49.108;1.502;2022-07-22T05:21:40;120.43;;;113.32;;
67503;SDS011;54351;49.108;1.502;2022-07-22T05:24:07;123.32;;;115.90;;
67503;SDS011;54351;49.108;1.502;2022-07-22T05:26:34;131.60;;;123.47;;
67503;SDS011;54351;49.108;1.502;2022-07-22T05:29:00;130.23;;;122.65;;
67503;SDS011;54351;49.108;1.502;2022-07-22T05:31:27;125.28;;;117.47;;
67503;SDS011;54351;49.108;1.502;2022-07-22T05:33:56;121.97;;;114.35;;
67503;SDS011;54351;49.108;1.502;2022-07-22T05:36:23;122.25;;;114.57;;
67503;SDS011;54351;49.108;1.502;2022-07-22T05:38:50;125.43;;;117.38;;
67503;SDS011;54351;49.108;1.502;2022-07-22T05:41:17;126.25;;;118.45;;
67503;SDS011;54351;49.108;1.502;2022-07-22T05:43:44;131.63;;;123.55;;
67503;SDS011;54351;49.108;1.502;2022-07-22T05:46:13;138.27;;;129.57;;
67503;SDS011;54351;49.108;1.502;2022-07-22T05:48:40;127.45;;;119.70;;
67503;SDS011;54351;49.108;1.502;2022-07-22T05:51:15;126.95;;;118.88;;
67503;SDS011;54351;49.108;1.502;2022-07-22T05:53:42;132.52;;;124.32;;
67503;SDS011;54351;49.108;1.502;2022-07-22T05:56:08;126.35;;;118.60;;
67503;SDS011;54351;49.108;1.502;2022-07-22T05:58:36;118.53;;;111.13;;
67503;SDS011;54351;49.108;1.502;2022-07-22T06:01:09;116.57;;;109.55;;
67503;SDS011;54351;49.108;1.502;2022-07-22T06:03:38;126.53;;;118.88;;
67503;SDS011;54351;49.108;1.502;2022-07-22T06:06:04;119.70;;;112.22;;
67503;SDS011;54351;49.108;1.502;2022-07-22T06:08:33;121.30;;;113.65;;
67503;SDS011;54351;49.108;1.502;2022-07-22T06:10:59;120.85;;;112.65;;
67503;SDS011;54351;49.108;1.502;2022-07-22T06:13:26;137.30;;;128.82;;
67503;SDS011;54351;49.108;1.502;2022-07-22T06:15:52;127.13;;;119.05;;
67503;SDS011;54351;49.108;1.502;2022-07-22T06:18:18;125.10;;;117.50;;
67503;SDS011;54351;49.108;1.502;2022-07-22T06:20:45;152.95;;;143.77;;
67503;SDS011;54351;49.108;1.502;2022-07-22T06:23:11;163.38;;;153.52;;
67503;SDS011;54351;49.108;1.502;2022-07-22T06:25:37;148.40;;;139.55;;
67503;SDS011;54351;49.108;1.502;2022-07-22T06:28:03;146.32;;;137.60;;
67503;SDS011;54351;49.108;1.502;2022-07-22T06:30:29;138.52;;;130.18;;
67503;SDS011;54351;49.108;1.502;2022-07-22T06:32:56;167.13;;;157.48;;
67503;SDS011;54351;49.108;1.502;2022-07-22T06:35:22;194.80;;;183.77;;
67503;SDS011;54351;49.108;1.502;2022-07-22T06:37:52;158.68;;;149.43;;
67503;SDS011;54351;49.108;1.502;2022-07-22T06:40:18;157.20;;;147.63;;
67503;SDS011;54351;49.108;1.502;2022-07-22T06:42:44;150.55;;;141.73;;
67503;SDS011;54351;49.108;1.502;2022-07-22T06:45:10;171.80;;;162.00;;
67503;SDS011;54351;49.108;1.502;2022-07-22T06:47:36;189.77;;;178.98;;
67503;SDS011;54351;49.108;1.502;2022-07-22T06:50:03;192.60;;;181.75;;
67503;SDS011;54351;49.108;1.502;2022-07-22T06:52:29;193.18;;;182.38;;
67503;SDS011;54351;49.108;1.502;2022-07-22T06:54:55;148.98;;;140.20;;
67503;SDS011;54351;49.108;1.502;2022-07-22T06:57:21;148.60;;;139.70;;
67503;SDS011;54351;49.108;1.502;2022-07-22T06:59:47;161.63;;;151.93;;
67503;SDS011;54351;49.108;1.502;2022-07-22T07:02:13;159.02;;;149.93;;
67503;SDS011;54351;49.108;1.502;2022-07-22T07:04:39;188.27;;;177.60;;
67503;SDS011;54351;49.108;1.502;2022-07-22T07:07:05;176.20;;;165.85;;
67503;SDS011;54351;49.108;1.502;2022-07-22T07:09:32;178.35;;;168.35;;
67503;SDS011;54351;49.108;1.502;2022-07-22T07:11:58;188.27;;;177.57;;
67503;SDS011;54351;49.108;1.502;2022-07-22T07:14:24;196.70;;;185.88;;
67503;SDS011;54351;49.108;1.502;2022-07-22T07:16:50;159.73;;;150.45;;
67503;SDS011;54351;49.108;1.502;2022-07-22T07:19:16;190.77;;;180.00;;
67503;SDS011;54351;49.108;1.502;2022-07-22T07:21:44;181.98;;;171.35;;
67503;SDS011;54351;49.108;1.502;2022-07-22T07:24:10;171.25;;;161.45;;
67503;SDS011;54351;49.108;1.502;2022-07-22T07:26:36;145.77;;;136.98;;
67503;SDS011;54351;49.108;1.502;2022-07-22T07:29:02;150.95;;;141.63;;
67503;SDS011;54351;49.108;1.502;2022-07-22T07:31:29;154.52;;;145.75;;
67503;SDS011;54351;49.108;1.502;2022-07-22T07:33:55;129.88;;;121.93;;
67503;SDS011;54351;49.108;1.502;2022-07-22T07:36:21;133.20;;;124.93;;
67503;SDS011;54351;49.108;1.502;2022-07-22T07:38:47;122.57;;;114.93;;
67503;SDS011;54351;49.108;1.502;2022-07-22T07:41:14;157.82;;;148.57;;
67503;SDS011;54351;49.108;1.502;2022-07-22T07:43:40;148.20;;;139.43;;
67503;SDS011;54351;49.108;1.502;2022-07-22T07:46:06;130.93;;;123.32;;
67503;SDS011;54351;49.108;1.502;2022-07-22T07:48:32;113.07;;;106.25;;
67503;SDS011;54351;49.108;1.502;2022-07-22T07:57:39;102.20;;;95.97;;
67503;SDS011;54351;49.108;1.502;2022-07-22T08:00:17;95.15;;;89.05;;
67503;SDS011;54351;49.108;1.502;2022-07-22T08:03:42;128.35;;;120.20;;
67503;SDS011;54351;49.108;1.502;2022-07-22T08:05:58;104.70;;;98.32;;
67503;SDS011;54351;49.108;1.502;2022-07-22T08:27:05;113.35;;;106.28;;
67503;SDS011;54351;49.108;1.502;2022-07-22T08:29:44;101.68;;;95.45;;
67503;SDS011;54351;49.108;1.502;2022-07-22T08:32:30;92.07;;;86.53;;
67503;SDS011;54351;49.108;1.502;2022-07-22T08:34:59;96.40;;;90.75;;
67503;SDS011;54351;49.108;1.502;2022-07-22T08:43:31;98.07;;;92.00;;
67503;SDS011;54351;49.108;1.502;2022-07-22T08:46:24;93.38;;;87.68;;
67503;SDS011;54351;49.108;1.502;2022-07-22T08:48:56;79.10;;;74.10;;
67503;SDS011;54351;49.108;1.502;2022-07-22T08:54:49;87.28;;;81.82;;
67503;SDS011;54351;49.108;1.502;2022-07-22T08:57:35;93.40;;;87.85;;
67503;SDS011;54351;49.108;1.502;2022-07-22T09:00:24;113.85;;;107.13;;
67503;SDS011;54351;49.108;1.502;2022-07-22T09:03:16;119.88;;;112.72;;
67503;SDS011;54351;49.108;1.502;2022-07-22T09:05:55;142.05;;;133.57;;
67503;SDS011;54351;49.108;1.502;2022-07-22T09:17:42;85.82;;;80.57;;
67503;SDS011;54351;49.108;1.502;2022-07-22T10:37:38;141.43;;;133.10;;
67503;SDS011;54351;49.108;1.502;2022-07-22T10:40:27;178.18;;;168.23;;
67503;SDS011;54351;49.108;1.502;2022-07-22T10:45:58;163.13;;;153.88;;
67503;SDS011;54351;49.108;1.502;2022-07-22T10:49:08;159.93;;;150.93;;
67503;SDS011;54351;49.108;1.502;2022-07-22T10:57:42;166.98;;;156.63;;
67503;SDS011;54351;49.108;1.502;2022-07-22T11:00:51;162.05;;;152.80;;
67503;SDS011;54351;49.108;1.502;2022-07-22T11:03:30;151.23;;;142.43;;
67503;SDS011;54351;49.108;1.502;2022-07-22T11:06:21;154.90;;;145.45;;
67503;SDS011;54351;49.108;1.502;2022-07-22T11:08:48;168.20;;;158.50;;
67503;SDS011;54351;49.108;1.502;2022-07-22T11:11:35;172.25;;;162.52;;
67503;SDS011;54351;49.108;1.502;2022-07-22T12:14:45;121.43;;;114.45;;
67503;SDS011;54351;49.108;1.502;2022-07-22T12:31:59;93.10;;;87.72;;
67503;SDS011;54351;49.108;1.502;2022-07-22T12:34:39;125.95;;;118.45;;
67503;SDS011;54351;49.108;1.502;2022-07-22T12:45:08;36.03;;;33.35;;
67503;SDS011;54351;49.108;1.502;2022-07-22T12:47:47;88.40;;;83.13;;
67503;SDS011;54351;49.108;1.502;2022-07-22T12:50:30;79.03;;;73.65;;
67503;SDS011;54351;49.108;1.502;2022-07-22T12:56:04;66.65;;;62.58;;
67503;SDS011;54351;49.108;1.502;2022-07-22T12:58:41;50.65;;;47.30;;
67503;SDS011;54351;49.108;1.502;2022-07-22T13:01:13;55.75;;;52.00;;
67503;SDS011;54351;49.108;1.502;2022-07-22T13:04:02;38.20;;;35.58;;
67503;SDS011;54351;49.108;1.502;2022-07-22T13:06:30;40.35;;;37.50;;
67503;SDS011;54351;49.108;1.502;2022-07-22T13:08:56;47.13;;;43.58;;
67503;SDS011;54351;49.108;1.502;2022-07-22T13:11:42;48.60;;;45.38;;
67503;SDS011;54351;49.108;1.502;2022-07-22T13:14:12;28.90;;;26.65;;
67503;SDS011;54351;49.108;1.502;2022-07-22T13:16:46;17.38;;;15.65;;
67503;SDS011;54351;49.108;1.502;2022-07-22T13:19:12;20.67;;;19.17;;
67503;SDS011;54351;49.108;1.502;2022-07-22T13:21:42;11.52;;;10.00;;
67503;SDS011;54351;49.108;1.502;2022-07-22T13:24:12;14.13;;;9.85;;
67503;SDS011;54351;49.108;1.502;2022-07-22T13:26:48;13.18;;;10.30;;
67503;SDS011;54351;49.108;1.502;2022-07-22T13:29:17;12.45;;;10.02;;
67503;SDS011;54351;49.108;1.502;2022-07-22T13:31:45;12.35;;;8.93;;
67503;SDS011;54351;49.108;1.502;2022-07-22T13:34:17;17.85;;;9.13;;
67503;SDS011;54351;49.108;1.502;2022-07-22T13:36:49;8.23;;;5.50;;
67503;SDS011;54351;49.108;1.502;2022-07-22T13:39:21;10.77;;;5.57;;
67503;SDS011;54351;49.108;1.502;2022-07-22T13:41:50;9.73;;;7.13;;
67503;SDS011;54351;49.108;1.502;2022-07-22T13:44:16;9.57;;;6.47;;
67503;SDS011;54351;49.108;1.502;2022-07-22T13:46:51;10.02;;;7.10;;
67503;SDS011;54351;49.108;1.502;2022-07-22T13:49:19;10.02;;;6.50;;
67503;SDS011;54351;49.108;1.502;2022-07-22T13:51:55;11.07;;;7.40;;
67503;SDS011;54351;49.108;1.502;2022-07-22T13:54:32;8.50;;;6.93;;
67503;SDS011;54351;49.108;1.502;2022-07-22T14:00:03;10.65;;;6.82;;
67503;SDS011;54351;49.108;1.502;2022-07-22T14:02:44;11.30;;;6.25;;
67503;SDS011;54351;49.108;1.502;2022-07-22T14:05:12;9.98;;;6.43;;
67503;SDS011;54351;49.108;1.502;2022-07-22T14:07:41;10.25;;;7.15;;
67503;SDS011;54351;49.108;1.502;2022-07-22T14:10:16;10.38;;;7.15;;
67503;SDS011;54351;49.108;1.502;2022-07-22T14:12:46;9.93;;;6.30;;
67503;SDS011;54351;49.108;1.502;2022-07-22T14:15:20;7.90;;;4.93;;
67503;SDS011;54351;49.108;1.502;2022-07-22T14:17:52;12.70;;;5.28;;
67503;SDS011;54351;49.108;1.502;2022-07-22T14:20:26;7.45;;;4.88;;
67503;SDS011;54351;49.108;1.502;2022-07-22T14:22:52;11.00;;;5.32;;
67503;SDS011;54351;49.108;1.502;2022-07-22T14:25:18;9.25;;;6.50;;
67503;SDS011;54351;49.108;1.502;2022-07-22T14:33:51;11.73;;;7.28;;
67503;SDS011;54351;49.108;1.502;2022-07-22T14:36:20;10.18;;;9.18;;
67503;SDS011;54351;49.108;1.502;2022-07-22T14:38:55;11.55;;;10.23;;
67503;SDS011;54351;49.108;1.502;2022-07-22T14:41:21;11.95;;;9.45;;
67503;SDS011;54351;49.108;1.502;2022-07-22T14:43:53;11.48;;;8.43;;
67503;SDS011;54351;49.108;1.502;2022-07-22T14:46:29;17.75;;;16.13;;
67503;SDS011;54351;49.108;1.502;2022-07-22T14:49:01;12.15;;;9.90;;
67503;SDS011;54351;49.108;1.502;2022-07-22T14:54:07;12.35;;;11.20;;
67503;SDS011;54351;49.108;1.502;2022-07-22T14:56:39;10.50;;;6.38;;
67503;SDS011;54351;49.108;1.502;2022-07-22T14:59:14;10.25;;;7.78;;
67503;SDS011;54351;49.108;1.502;2022-07-22T15:01:41;11.65;;;8.10;;
67503;SDS011;54351;49.108;1.502;2022-07-22T15:04:09;14.57;;;9.55;;
67503;SDS011;54351;49.108;1.502;2022-07-22T15:06:35;24.27;;;22.33;;
67503;SDS011;54351;49.108;1.502;2022-07-22T15:09:04;28.45;;;26.33;;
67503;SDS011;54351;49.108;1.502;2022-07-22T15:11:30;28.00;;;26.00;;
67503;SDS011;54351;49.108;1.502;2022-07-22T15:14:06;37.55;;;34.65;;
67503;SDS011;54351;49.108;1.502;2022-07-22T15:16:32;39.78;;;36.97;;
67503;SDS011;54351;49.108;1.502;2022-07-22T15:18:58;46.70;;;43.55;;
67503;SDS011;54351;49.108;1.502;2022-07-22T15:21:25;143.52;;;135.50;;
67503;SDS011;54351;49.108;1.502;2022-07-22T15:23:51;158.77;;;149.93;;
67503;SDS011;54351;49.108;1.502;2022-07-22T15:26:17;117.53;;;111.07;;
67503;SDS011;54351;49.108;1.502;2022-07-22T15:28:43;220.65;;;208.98;;
67503;SDS011;54351;49.108;1.502;2022-07-22T15:31:15;269.63;;;254.80;;
67503;SDS011;54351;49.108;1.502;2022-07-22T15:33:41;225.80;;;213.43;;
67503;SDS011;54351;49.108;1.502;2022-07-22T15:36:10;36.60;;;34.22;;
67503;SDS011;54351;49.108;1.502;2022-07-22T15:38:37;135.68;;;128.20;;
67503;SDS011;54351;49.108;1.502;2022-07-22T15:41:04;371.92;;;351.10;;
67503;SDS011;54351;49.108;1.502;2022-07-22T15:43:30;378.15;;;357.08;;
67503;SDS011;54351;49.108;1.502;2022-07-22T15:45:57;106.03;;;99.65;;
67503;SDS011;54351;49.108;1.502;2022-07-22T15:48:23;181.80;;;171.88;;
67503;SDS011;54351;49.108;1.502;2022-07-22T15:50:49;340.92;;;322.20;;
67503;SDS011;54351;49.108;1.502;2022-07-22T15:53:17;345.13;;;326.10;;
67503;SDS011;54351;49.108;1.502;2022-07-22T15:55:53;414.75;;;390.70;;
67503;SDS011;54351;49.108;1.502;2022-07-22T15:58:19;497.70;;;468.42;;
67503;SDS011;54351;49.108;1.502;2022-07-22T16:01:04;582.38;;;546.70;;
67503;SDS011;54351;49.108;1.502;2022-07-22T16:03:30;480.20;;;452.33;;
67503;SDS011;54351;49.108;1.502;2022-07-22T16:05:56;517.13;;;486.27;;
67503;SDS011;54351;49.108;1.502;2022-07-22T16:08:22;496.55;;;467.42;;
67503;SDS011;54351;49.108;1.502;2022-07-22T16:10:51;467.13;;;440.25;;
67503;SDS011;54351;49.108;1.502;2022-07-22T16:13:20;492.05;;;463.40;;
67503;SDS011;54351;49.108;1.502;2022-07-22T16:15:46;506.40;;;476.15;;
67503;SDS011;54351;49.108;1.502;2022-07-22T16:18:12;595.03;;;557.90;;
67503;SDS011;54351;49.108;1.502;2022-07-22T16:20:39;527.78;;;496.05;;
67503;SDS011;54351;49.108;1.502;2022-07-22T16:23:06;536.45;;;504.33;;
67503;SDS011;54351;49.108;1.502;2022-07-22T16:25:32;664.70;;;623.15;;
67503;SDS011;54351;49.108;1.502;2022-07-22T16:28:03;605.22;;;567.85;;
67503;SDS011;54351;49.108;1.502;2022-07-22T16:30:30;608.60;;;570.90;;
67503;SDS011;54351;49.108;1.502;2022-07-22T16:32:59;517.65;;;487.02;;
67503;SDS011;54351;49.108;1.502;2022-07-22T16:35:26;639.65;;;599.80;;
67503;SDS011;54351;49.108;1.502;2022-07-22T16:37:52;616.58;;;578.13;;
67503;SDS011;54351;49.108;1.502;2022-07-22T16:40:19;613.80;;;575.47;;
67503;SDS011;54351;49.108;1.502;2022-07-22T16:42:45;611.42;;;573.45;;
67503;SDS011;54351;49.108;1.502;2022-07-22T16:45:11;675.53;;;633.20;;
67503;SDS011;54351;49.108;1.502;2022-07-22T16:47:37;682.47;;;639.45;;
67503;SDS011;54351;49.108;1.502;2022-07-22T16:50:04;598.72;;;561.95;;
67503;SDS011;54351;49.108;1.502;2022-07-22T16:52:30;589.58;;;553.47;;
67503;SDS011;54351;49.108;1.502;2022-07-22T16:54:59;620.72;;;582.33;;
67503;SDS011;54351;49.108;1.502;2022-07-22T16:57:25;687.55;;;643.90;;
67503;SDS011;54351;49.108;1.502;2022-07-22T16:59:51;617.25;;;578.78;;
67503;SDS011;54351;49.108;1.502;2022-07-22T17:02:17;680.63;;;637.63;;
67503;SDS011;54351;49.108;1.502;2022-07-22T17:04:43;681.10;;;638.17;;
67503;SDS011;54351;49.108;1.502;2022-07-22T17:07:10;692.28;;;648.60;;
67503;SDS011;54351;49.108;1.502;2022-07-22T17:09:36;679.83;;;636.55;;
67503;SDS011;54351;49.108;1.502;2022-07-22T17:12:02;697.50;;;653.70;;
67503;SDS011;54351;49.108;1.502;2022-07-22T17:14:28;664.70;;;623.13;;
67503;SDS011;54351;49.108;1.502;2022-07-22T17:16:55;704.28;;;659.67;;
67503;SDS011;54351;49.108;1.502;2022-07-22T17:19:21;555.13;;;521.78;;
67503;SDS011;54351;49.108;1.502;2022-07-22T17:21:50;570.90;;;536.40;;
67503;SDS011;54351;49.108;1.502;2022-07-22T17:24:16;617.53;;;579.53;;
67503;SDS011;54351;49.108;1.502;2022-07-22T17:26:45;643.47;;;603.17;;
67503;SDS011;54351;49.108;1.502;2022-07-22T17:29:11;625.33;;;586.50;;
67503;SDS011;54351;49.108;1.502;2022-07-22T17:38:00;628.47;;;588.95;;
67503;SDS011;54351;49.108;1.502;2022-07-22T17:43:48;711.60;;;666.67;;
67503;SDS011;54351;49.108;1.502;2022-07-22T17:46:22;685.63;;;642.08;;
67503;SDS011;54351;49.108;1.502;2022-07-22T17:48:48;729.15;;;683.10;;
67503;SDS011;54351;49.108;1.502;2022-07-22T17:51:24;743.05;;;696.17;;
67503;SDS011;54351;49.108;1.502;2022-07-22T17:53:52;733.97;;;687.35;;
67503;SDS011;54351;49.108;1.502;2022-07-22T17:56:28;736.67;;;690.47;;
67503;SDS011;54351;49.108;1.502;2022-07-22T17:59:03;694.67;;;651.22;;
67503;SDS011;54351;49.108;1.502;2022-07-22T18:01:32;644.40;;;604.58;;
67503;SDS011;54351;49.108;1.502;2022-07-22T18:04:00;631.78;;;592.95;;
67503;SDS011;54351;49.108;1.502;2022-07-22T18:09:35;629.80;;;591.05;;
67503;SDS011;54351;49.108;1.502;2022-07-22T18:12:24;540.80;;;508.25;;
67503;SDS011;54351;49.108;1.502;2022-07-22T18:17:48;558.72;;;525.25;;